sensor_id;sensor_type;location;lat;lon;timestamp;temperature;humidity
22680;DHT22;11507;44.858;10.374;2023-02-28T00:01:28;3.80;99.90
22680;DHT22;11507;44.858;10.374;2023-02-28T00:03:55;3.70;99.90
22680;DHT22;11507;44.858;10.374;2023-02-28T00:06:22;3.70;99.90
22680;DHT22;11507;44.858;10.374;2023-02-28T00:08:50;3.70;99.90
22680;DHT22;11507;44.858;10.374;2023-02-28T00:11:19;3.70;99.90
22680;DHT22;11507;44.858;10.374;2023-02-28T00:13:49;3.60;99.90
22680;DHT22;11507;44.858;10.374;2023-02-28T00:16:21;3.60;99.90
22680;DHT22;11507;44.858;10.374;2023-02-28T00:18:49;3.60;99.90
22680;DHT22;11507;44.858;10.374;2023-02-28T00:21:17;3.60;99.90
22680;DHT22;11507;44.858;10.374;2023-02-28T00:23:45;3.60;99.90
22680;DHT22;11507;44.858;10.374;2023-02-28T00:26:12;3.50;99.90
22680;DHT22;11507;44.858;10.374;2023-02-28T00:28:48;3.60;99.90
22680;DHT22;11507;44.858;10.374;2023-02-28T00:31:15;3.50;99.90
22680;DHT22;11507;44.858;10.374;2023-02-28T00:33:43;3.50;99.90
22680;DHT22;11507;44.858;10.374;2023-02-28T00:36:11;3.50;99.90
22680;DHT22;11507;44.858;10.374;2023-02-28T00:38:43;3.50;99.90
22680;DHT22;11507;44.858;10.374;2023-02-28T00:41:11;3.50;99.90
22680;DHT22;11507;44.858;10.374;2023-02-28T00:43:41;3.50;99.90
22680;DHT22;11507;44.858;10.374;2023-02-28T00:46:07;3.40;99.90
22680;DHT22;11507;44.858;10.374;2023-02-28T00:48:38;3.50;99.90
22680;DHT22;11507;44.858;10.374;2023-02-28T00:51:07;3.50;99.90
22680;DHT22;11507;44.858;10.374;2023-02-28T00:53:34;3.50;99.90
22680;DHT22;11507;44.858;10.374;2023-02-28T00:56:01;3.40;99.90
22680;DHT22;11507;44.858;10.374;2023-02-28T00:58:31;3.40;99.90
22680;DHT22;11507;44.858;10.374;2023-02-28T01:00:57;3.40;99.90
22680;DHT22;11507;44.858;10.374;2023-02-28T01:03:24;3.40;99.90
22680;DHT22;11507;44.858;10.374;2023-02-28T01:05:51;3.40;99.90
22680;DHT22;11507;44.858;10.374;2023-02-28T01:08:19;3.40;99.90
22680;DHT22;11507;44.858;10.374;2023-02-28T01:10:45;3.30;99.90
22680;DHT22;11507;44.858;10.374;2023-02-28T01:13:13;3.40;99.90
22680;DHT22;11507;44.858;10.374;2023-02-28T01:15:46;3.30;99.90
22680;DHT22;11507;44.858;10.374;2023-02-28T01:18:23;3.30;99.90
22680;DHT22;11507;44.858;10.374;2023-02-28T01:20:53;3.30;99.90
22680;DHT22;11507;44.858;10.374;2023-02-28T01:23:26;3.30;99.90
22680;DHT22;11507;44.858;10.374;2023-02-28T01:25:56;3.30;99.90
22680;DHT22;11507;44.858;10.374;2023-02-28T01:28:23;3.30;99.90
22680;DHT22;11507;44.858;10.374;2023-02-28T01:30:50;3.30;99.90
22680;DHT22;11507;44.858;10.374;2023-02-28T01:33:19;3.30;99.90
22680;DHT22;11507;44.858;10.374;2023-02-28T01:35:47;3.30;99.90
22680;DHT22;11507;44.858;10.374;2023-02-28T01:38:15;3.30;99.90
22680;DHT22;11507;44.858;10.374;2023-02-28T01:40:43;3.30;99.90
22680;DHT22;11507;44.858;10.374;2023-02-28T01:43:55;3.40;99.90
22680;DHT22;11507;44.858;10.374;2023-02-28T01:46:22;3.40;99.90
22680;DHT22;11507;44.858;10.374;2023-02-28T01:49:00;3.40;99.90
22680;DHT22;11507;44.858;10.374;2023-02-28T01:51:43;3.50;99.90
22680;DHT22;11507;44.858;10.374;2023-02-28T01:54:26;3.50;99.90
22680;DHT22;11507;44.858;10.374;2023-02-28T01:56:56;3.40;99.90
22680;DHT22;11507;44.858;10.374;2023-02-28T01:59:33;3.40;99.90
22680;DHT22;11507;44.858;10.374;2023-02-28T02:02:04;3.40;99.90
22680;DHT22;11507;44.858;10.374;2023-02-28T02:04:44;3.40;99.90
22680;DHT22;11507;44.858;10.374;2023-02-28T02:07:14;3.40;99.90
22680;DHT22;11507;44.858;10.374;2023-02-28T02:09:44;3.40;99.90
22680;DHT22;11507;44.858;10.374;2023-02-28T02:12:14;3.40;99.90
22680;DHT22;11507;44.858;10.374;2023-02-28T02:15:16;3.40;99.90
22680;DHT22;11507;44.858;10.374;2023-02-28T02:17:46;3.40;99.90
22680;DHT22;11507;44.858;10.374;2023-02-28T02:23:18;3.40;99.90
22680;DHT22;11507;44.858;10.374;2023-02-28T02:25:58;3.40;99.90
22680;DHT22;11507;44.858;10.374;2023-02-28T02:36:54;3.50;99.90
22680;DHT22;11507;44.858;10.374;2023-02-28T02:39:29;3.50;99.90
22680;DHT22;11507;44.858;10.374;2023-02-28T02:42:00;3.50;99.90
22680;DHT22;11507;44.858;10.374;2023-02-28T02:44:37;3.50;99.90
22680;DHT22;11507;44.858;10.374;2023-02-28T02:47:12;3.50;99.90
22680;DHT22;11507;44.858;10.374;2023-02-28T02:49:42;3.50;99.90
22680;DHT22;11507;44.858;10.374;2023-02-28T02:52:11;3.50;99.90
22680;DHT22;11507;44.858;10.374;2023-02-28T02:54:44;3.50;99.90
22680;DHT22;11507;44.858;10.374;2023-02-28T02:57:52;3.50;99.90
22680;DHT22;11507;44.858;10.374;2023-02-28T03:00:25;3.60;99.90
22680;DHT22;11507;44.858;10.374;2023-02-28T03:02:56;3.60;99.90
22680;DHT22;11507;44.858;10.374;2023-02-28T03:05:48;3.60;99.90
22680;DHT22;11507;44.858;10.374;2023-02-28T03:08:16;3.60;99.90
22680;DHT22;11507;44.858;10.374;2023-02-28T03:10:49;3.60;99.90
22680;DHT22;11507;44.858;10.374;2023-02-28T03:13:59;3.60;99.90
22680;DHT22;11507;44.858;10.374;2023-02-28T03:16:35;3.70;99.90
22680;DHT22;11507;44.858;10.374;2023-02-28T03:27:30;3.70;99.90
22680;DHT22;11507;44.858;10.374;2023-02-28T03:33:05;3.70;99.90
22680;DHT22;11507;44.858;10.374;2023-02-28T03:35:50;3.70;99.90
22680;DHT22;11507;44.858;10.374;2023-02-28T03:38:38;3.70;99.90
22680;DHT22;11507;44.858;10.374;2023-02-28T03:41:16;3.70;99.90
22680;DHT22;11507;44.858;10.374;2023-02-28T03:43:54;3.70;99.90
22680;DHT22;11507;44.858;10.374;2023-02-28T03:46:26;3.70;99.90
22680;DHT22;11507;44.858;10.374;2023-02-28T03:49:16;3.70;99.90
22680;DHT22;11507;44.858;10.374;2023-02-28T03:51:45;3.70;99.90
22680;DHT22;11507;44.858;10.374;2023-02-28T03:54:28;3.70;99.90
22680;DHT22;11507;44.858;10.374;2023-02-28T04:00:30;3.70;99.90
22680;DHT22;11507;44.858;10.374;2023-02-28T04:02:59;3.70;99.90
22680;DHT22;11507;44.858;10.374;2023-02-28T04:05:26;3.70;99.90
22680;DHT22;11507;44.858;10.374;2023-02-28T04:08:08;3.70;99.90
22680;DHT22;11507;44.858;10.374;2023-02-28T04:10:39;3.60;99.90
22680;DHT22;11507;44.858;10.374;2023-02-28T04:13:10;3.70;99.90
22680;DHT22;11507;44.858;10.374;2023-02-28T04:15:39;3.70;99.90
22680;DHT22;11507;44.858;10.374;2023-02-28T04:18:06;3.70;99.90
22680;DHT22;11507;44.858;10.374;2023-02-28T04:20:36;3.60;99.90
22680;DHT22;11507;44.858;10.374;2023-02-28T04:23:04;3.60;99.90
22680;DHT22;11507;44.858;10.374;2023-02-28T04:25:31;3.60;99.90
22680;DHT22;11507;44.858;10.374;2023-02-28T04:27:58;3.60;99.90
22680;DHT22;11507;44.858;10.374;2023-02-28T04:30:29;3.60;99.90
22680;DHT22;11507;44.858;10.374;2023-02-28T04:33:00;3.60;99.90
22680;DHT22;11507;44.858;10.374;2023-02-28T04:35:26;3.60;99.90
22680;DHT22;11507;44.858;10.374;2023-02-28T04:37:58;3.60;99.90
22680;DHT22;11507;44.858;10.374;2023-02-28T04:40:25;3.60;99.90
22680;DHT22;11507;44.858;10.374;2023-02-28T04:42:59;3.70;99.90
22680;DHT22;11507;44.858;10.374;2023-02-28T04:45:26;3.60;99.90
22680;DHT22;11507;44.858;10.374;2023-02-28T04:47:59;3.60;99.90
22680;DHT22;11507;44.858;10.374;2023-02-28T04:50:24;3.60;99.90
22680;DHT22;11507;44.858;10.374;2023-02-28T04:52:51;3.60;99.90
22680;DHT22;11507;44.858;10.374;2023-02-28T04:55:17;3.60;99.90
22680;DHT22;11507;44.858;10.374;2023-02-28T04:57:44;3.60;99.90
22680;DHT22;11507;44.858;10.374;2023-02-28T05:00:12;3.60;99.90
22680;DHT22;11507;44.858;10.374;2023-02-28T05:02:41;3.60;99.90
22680;DHT22;11507;44.858;10.374;2023-02-28T05:05:10;3.60;99.90
22680;DHT22;11507;44.858;10.374;2023-02-28T05:07:36;3.60;99.90
22680;DHT22;11507;44.858;10.374;2023-02-28T05:10:03;3.50;99.90
22680;DHT22;11507;44.858;10.374;2023-02-28T05:12:31;3.60;99.90
22680;DHT22;11507;44.858;10.374;2023-02-28T05:14:59;3.50;99.90
22680;DHT22;11507;44.858;10.374;2023-02-28T05:17:27;3.50;99.90
22680;DHT22;11507;44.858;10.374;2023-02-28T05:19:53;3.50;99.90
22680;DHT22;11507;44.858;10.374;2023-02-28T05:22:20;3.50;99.90
22680;DHT22;11507;44.858;10.374;2023-02-28T05:24:48;3.50;99.90
22680;DHT22;11507;44.858;10.374;2023-02-28T05:27:14;3.50;99.90
22680;DHT22;11507;44.858;10.374;2023-02-28T05:29:42;3.50;99.90
22680;DHT22;11507;44.858;10.374;2023-02-28T05:32:12;3.50;99.90
22680;DHT22;11507;44.858;10.374;2023-02-28T05:34:40;3.50;99.90
22680;DHT22;11507;44.858;10.374;2023-02-28T05:37:12;3.40;99.90
22680;DHT22;11507;44.858;10.374;2023-02-28T05:39:42;3.50;99.90
22680;DHT22;11507;44.858;10.374;2023-02-28T05:42:10;3.50;99.90
22680;DHT22;11507;44.858;10.374;2023-02-28T05:44:38;3.40;99.90
22680;DHT22;11507;44.858;10.374;2023-02-28T05:47:08;3.40;99.90
22680;DHT22;11507;44.858;10.374;2023-02-28T05:49:36;3.40;99.90
22680;DHT22;11507;44.858;10.374;2023-02-28T05:52:04;3.40;99.90
22680;DHT22;11507;44.858;10.374;2023-02-28T05:54:31;3.40;99.90
22680;DHT22;11507;44.858;10.374;2023-02-28T05:56:58;3.50;99.90
22680;DHT22;11507;44.858;10.374;2023-02-28T05:59:26;3.40;99.90
22680;DHT22;11507;44.858;10.374;2023-02-28T06:01:54;3.40;99.90
22680;DHT22;11507;44.858;10.374;2023-02-28T06:04:24;3.50;99.90
22680;DHT22;11507;44.858;10.374;2023-02-28T06:06:54;3.50;99.90
22680;DHT22;11507;44.858;10.374;2023-02-28T06:09:23;3.40;99.90
22680;DHT22;11507;44.858;10.374;2023-02-28T06:11:49;3.40;99.90
22680;DHT22;11507;44.858;10.374;2023-02-28T06:14:17;3.40;99.90
22680;DHT22;11507;44.858;10.374;2023-02-28T06:16:45;3.40;99.90
22680;DHT22;11507;44.858;10.374;2023-02-28T06:19:11;3.40;99.90
22680;DHT22;11507;44.858;10.374;2023-02-28T06:21:38;3.50;99.90
22680;DHT22;11507;44.858;10.374;2023-02-28T06:24:04;3.40;99.90
22680;DHT22;11507;44.858;10.374;2023-02-28T06:26:31;3.40;99.90
22680;DHT22;11507;44.858;10.374;2023-02-28T06:28:57;3.50;99.90
22680;DHT22;11507;44.858;10.374;2023-02-28T06:31:24;3.40;99.90
22680;DHT22;11507;44.858;10.374;2023-02-28T06:33:51;3.50;99.90
22680;DHT22;11507;44.858;10.374;2023-02-28T06:36:17;3.50;99.90
22680;DHT22;11507;44.858;10.374;2023-02-28T06:38:43;3.50;99.90
22680;DHT22;11507;44.858;10.374;2023-02-28T06:41:10;3.50;99.90
22680;DHT22;11507;44.858;10.374;2023-02-28T06:43:40;3.50;99.90
22680;DHT22;11507;44.858;10.374;2023-02-28T06:46:10;3.50;99.90
22680;DHT22;11507;44.858;10.374;2023-02-28T06:48:36;3.50;99.90
22680;DHT22;11507;44.858;10.374;2023-02-28T06:51:03;3.50;99.90
22680;DHT22;11507;44.858;10.374;2023-02-28T06:53:29;3.50;99.90
22680;DHT22;11507;44.858;10.374;2023-02-28T06:55:55;3.50;99.90
22680;DHT22;11507;44.858;10.374;2023-02-28T06:58:21;3.60;99.90
22680;DHT22;11507;44.858;10.374;2023-02-28T07:00:51;3.50;99.90
22680;DHT22;11507;44.858;10.374;2023-02-28T07:03:18;3.60;99.90
22680;DHT22;11507;44.858;10.374;2023-02-28T07:05:44;3.50;99.90
22680;DHT22;11507;44.858;10.374;2023-02-28T07:08:10;3.50;99.90
22680;DHT22;11507;44.858;10.374;2023-02-28T07:10:39;3.50;99.90
22680;DHT22;11507;44.858;10.374;2023-02-28T07:13:05;3.50;99.90
22680;DHT22;11507;44.858;10.374;2023-02-28T07:15:31;3.50;99.90
22680;DHT22;11507;44.858;10.374;2023-02-28T07:17:58;3.40;99.90
22680;DHT22;11507;44.858;10.374;2023-02-28T07:20:24;3.50;99.90
22680;DHT22;11507;44.858;10.374;2023-02-28T07:22:51;3.60;99.90
22680;DHT22;11507;44.858;10.374;2023-02-28T07:25:23;3.50;99.90
22680;DHT22;11507;44.858;10.374;2023-02-28T07:27:49;3.50;99.90
22680;DHT22;11507;44.858;10.374;2023-02-28T07:30:16;3.50;99.90
22680;DHT22;11507;44.858;10.374;2023-02-28T07:32:42;3.60;99.90
22680;DHT22;11507;44.858;10.374;2023-02-28T07:35:07;3.60;99.90
22680;DHT22;11507;44.858;10.374;2023-02-28T07:37:33;3.60;99.90
22680;DHT22;11507;44.858;10.374;2023-02-28T07:40:06;3.70;99.90
22680;DHT22;11507;44.858;10.374;2023-02-28T07:42:35;3.80;99.90
22680;DHT22;11507;44.858;10.374;2023-02-28T07:45:03;3.80;99.90
22680;DHT22;11507;44.858;10.374;2023-02-28T07:47:30;3.80;99.90
22680;DHT22;11507;44.858;10.374;2023-02-28T07:49:55;3.80;99.90
22680;DHT22;11507;44.858;10.374;2023-02-28T07:52:22;3.90;99.90
22680;DHT22;11507;44.858;10.374;2023-02-28T07:54:49;4.00;99.90
22680;DHT22;11507;44.858;10.374;2023-02-28T07:57:16;4.00;99.90
22680;DHT22;11507;44.858;10.374;2023-02-28T07:59:42;4.10;99.90
22680;DHT22;11507;44.858;10.374;2023-02-28T08:02:16;4.10;99.90
22680;DHT22;11507;44.858;10.374;2023-02-28T08:04:42;4.20;99.90
22680;DHT22;11507;44.858;10.374;2023-02-28T08:07:08;4.30;99.90
22680;DHT22;11507;44.858;10.374;2023-02-28T08:09:42;4.40;99.90
22680;DHT22;11507;44.858;10.374;2023-02-28T08:12:10;4.50;99.90
22680;DHT22;11507;44.858;10.374;2023-02-28T08:14:37;4.60;99.90
22680;DHT22;11507;44.858;10.374;2023-02-28T08:17:03;4.70;99.90
22680;DHT22;11507;44.858;10.374;2023-02-28T08:19:31;4.80;99.90
22680;DHT22;11507;44.858;10.374;2023-02-28T08:21:57;4.90;99.90
22680;DHT22;11507;44.858;10.374;2023-02-28T08:24:23;4.90;99.90
22680;DHT22;11507;44.858;10.374;2023-02-28T08:26:49;5.00;99.90
22680;DHT22;11507;44.858;10.374;2023-02-28T08:29:15;5.10;99.90
22680;DHT22;11507;44.858;10.374;2023-02-28T08:31:41;5.20;99.90
22680;DHT22;11507;44.858;10.374;2023-02-28T08:34:12;5.30;99.90
22680;DHT22;11507;44.858;10.374;2023-02-28T08:36:39;5.50;99.90
22680;DHT22;11507;44.858;10.374;2023-02-28T08:39:06;5.60;99.90
22680;DHT22;11507;44.858;10.374;2023-02-28T08:41:32;5.80;99.90
22680;DHT22;11507;44.858;10.374;2023-02-28T08:43:59;5.90;99.90
22680;DHT22;11507;44.858;10.374;2023-02-28T08:46:26;6.00;99.90
22680;DHT22;11507;44.858;10.374;2023-02-28T08:48:55;6.20;99.90
22680;DHT22;11507;44.858;10.374;2023-02-28T08:51:24;6.30;99.90
22680;DHT22;11507;44.858;10.374;2023-02-28T08:53:54;6.40;99.90
22680;DHT22;11507;44.858;10.374;2023-02-28T08:56:21;6.60;99.90
22680;DHT22;11507;44.858;10.374;2023-02-28T08:58:49;6.60;99.90
22680;DHT22;11507;44.858;10.374;2023-02-28T09:01:19;6.60;99.90
22680;DHT22;11507;44.858;10.374;2023-02-28T09:03:47;6.70;99.90
22680;DHT22;11507;44.858;10.374;2023-02-28T09:06:14;6.90;99.90
22680;DHT22;11507;44.858;10.374;2023-02-28T09:08:41;7.00;99.90
22680;DHT22;11507;44.858;10.374;2023-02-28T09:11:06;7.20;99.90
22680;DHT22;11507;44.858;10.374;2023-02-28T09:13:33;7.20;99.90
22680;DHT22;11507;44.858;10.374;2023-02-28T09:16:00;7.30;99.90
22680;DHT22;11507;44.858;10.374;2023-02-28T09:18:26;7.50;99.90
22680;DHT22;11507;44.858;10.374;2023-02-28T09:20:53;7.60;99.90
22680;DHT22;11507;44.858;10.374;2023-02-28T09:23:20;7.70;99.90
22680;DHT22;11507;44.858;10.374;2023-02-28T09:25:48;7.90;99.90
22680;DHT22;11507;44.858;10.374;2023-02-28T09:28:15;8.00;99.90
22680;DHT22;11507;44.858;10.374;2023-02-28T09:30:46;8.30;99.90
22680;DHT22;11507;44.858;10.374;2023-02-28T09:33:14;8.40;99.90
22680;DHT22;11507;44.858;10.374;2023-02-28T09:35:41;8.60;99.90
22680;DHT22;11507;44.858;10.374;2023-02-28T09:38:09;8.70;99.90
22680;DHT22;11507;44.858;10.374;2023-02-28T09:40:49;8.70;99.90
22680;DHT22;11507;44.858;10.374;2023-02-28T09:43:16;8.80;99.90
22680;DHT22;11507;44.858;10.374;2023-02-28T09:45:49;8.80;99.90
22680;DHT22;11507;44.858;10.374;2023-02-28T09:48:23;9.00;99.90
22680;DHT22;11507;44.858;10.374;2023-02-28T09:50:55;9.00;99.90
22680;DHT22;11507;44.858;10.374;2023-02-28T09:53:36;8.90;99.90
22680;DHT22;11507;44.858;10.374;2023-02-28T09:56:10;8.90;99.90
22680;DHT22;11507;44.858;10.374;2023-02-28T09:58:49;9.00;99.90
22680;DHT22;11507;44.858;10.374;2023-02-28T10:01:39;9.20;99.90
22680;DHT22;11507;44.858;10.374;2023-02-28T10:04:45;9.20;99.90
22680;DHT22;11507;44.858;10.374;2023-02-28T10:12:56;9.50;99.90
22680;DHT22;11507;44.858;10.374;2023-02-28T10:15:25;9.60;99.90
22680;DHT22;11507;44.858;10.374;2023-02-28T10:17:57;9.70;99.90
22680;DHT22;11507;44.858;10.374;2023-02-28T10:20:24;9.50;99.90
22680;DHT22;11507;44.858;10.374;2023-02-28T10:23:13;9.60;99.90
22680;DHT22;11507;44.858;10.374;2023-02-28T10:25:42;9.80;99.90
22680;DHT22;11507;44.858;10.374;2023-02-28T10:28:17;9.70;99.90
22680;DHT22;11507;44.858;10.374;2023-02-28T10:30:51;9.80;99.90
22680;DHT22;11507;44.858;10.374;2023-02-28T10:33:33;9.70;99.90
22680;DHT22;11507;44.858;10.374;2023-02-28T10:36:03;9.70;99.90
22680;DHT22;11507;44.858;10.374;2023-02-28T10:38:35;9.80;99.90
22680;DHT22;11507;44.858;10.374;2023-02-28T10:44:20;9.80;99.90
22680;DHT22;11507;44.858;10.374;2023-02-28T10:46:46;9.80;99.90
22680;DHT22;11507;44.858;10.374;2023-02-28T10:49:17;9.80;99.90
22680;DHT22;11507;44.858;10.374;2023-02-28T10:51:46;9.70;99.80
22680;DHT22;11507;44.858;10.374;2023-02-28T10:54:19;9.80;99.90
22680;DHT22;11507;44.858;10.374;2023-02-28T10:59:35;10.20;99.90
22680;DHT22;11507;44.858;10.374;2023-02-28T11:02:01;10.30;99.90
22680;DHT22;11507;44.858;10.374;2023-02-28T11:07:05;10.60;99.90
22680;DHT22;11507;44.858;10.374;2023-02-28T11:09:40;10.70;99.90
22680;DHT22;11507;44.858;10.374;2023-02-28T11:12:26;10.90;99.90
22680;DHT22;11507;44.858;10.374;2023-02-28T11:14:58;11.00;98.90
22680;DHT22;11507;44.858;10.374;2023-02-28T11:17:30;11.30;97.80
22680;DHT22;11507;44.858;10.374;2023-02-28T11:20:01;11.80;99.50
22680;DHT22;11507;44.858;10.374;2023-02-28T11:22:32;12.20;98.80
22680;DHT22;11507;44.858;10.374;2023-02-28T11:25:12;12.50;95.90
22680;DHT22;11507;44.858;10.374;2023-02-28T11:27:53;12.60;94.60
22680;DHT22;11507;44.858;10.374;2023-02-28T11:30:32;12.60;94.70
22680;DHT22;11507;44.858;10.374;2023-02-28T11:33:10;12.60;95.30
22680;DHT22;11507;44.858;10.374;2023-02-28T11:35:44;12.30;95.10
22680;DHT22;11507;44.858;10.374;2023-02-28T11:38:11;12.10;94.00
22680;DHT22;11507;44.858;10.374;2023-02-28T11:49:30;11.70;96.30
22680;DHT22;11507;44.858;10.374;2023-02-28T11:55:11;11.80;95.20
22680;DHT22;11507;44.858;10.374;2023-02-28T12:01:06;11.90;95.80
22680;DHT22;11507;44.858;10.374;2023-02-28T12:06:40;14.10;98.20
22680;DHT22;11507;44.858;10.374;2023-02-28T12:12:36;13.80;92.20
22680;DHT22;11507;44.858;10.374;2023-02-28T12:26:00;13.70;91.20
22680;DHT22;11507;44.858;10.374;2023-02-28T12:28:33;14.10;92.90
22680;DHT22;11507;44.858;10.374;2023-02-28T12:33:51;14.70;92.10
22680;DHT22;11507;44.858;10.374;2023-02-28T12:36:19;14.90;90.80
22680;DHT22;11507;44.858;10.374;2023-02-28T12:39:01;15.20;92.30
22680;DHT22;11507;44.858;10.374;2023-02-28T12:41:45;15.40;89.90
22680;DHT22;11507;44.858;10.374;2023-02-28T12:44:35;16.30;88.60
22680;DHT22;11507;44.858;10.374;2023-02-28T12:47:15;17.40;87.00
22680;DHT22;11507;44.858;10.374;2023-02-28T12:50:05;18.00;83.10
22680;DHT22;11507;44.858;10.374;2023-02-28T12:55:48;20.10;74.50
22680;DHT22;11507;44.858;10.374;2023-02-28T12:58:43;21.00;69.10
22680;DHT22;11507;44.858;10.374;2023-02-28T13:09:25;21.40;60.00
22680;DHT22;11507;44.858;10.374;2023-02-28T13:11:52;20.90;60.60
22680;DHT22;11507;44.858;10.374;2023-02-28T13:14:23;21.30;63.80
22680;DHT22;11507;44.858;10.374;2023-02-28T13:19:57;22.30;59.50
22680;DHT22;11507;44.858;10.374;2023-02-28T13:22:46;21.50;58.60
22680;DHT22;11507;44.858;10.374;2023-02-28T13:27:49;21.60;60.00
22680;DHT22;11507;44.858;10.374;2023-02-28T13:38:46;18.80;64.20
22680;DHT22;11507;44.858;10.374;2023-02-28T13:44:14;17.60;67.20
22680;DHT22;11507;44.858;10.374;2023-02-28T14:03:41;18.30;66.00
22680;DHT22;11507;44.858;10.374;2023-02-28T14:06:18;18.00;67.00
22680;DHT22;11507;44.858;10.374;2023-02-28T14:11:34;17.40;67.70
22680;DHT22;11507;44.858;10.374;2023-02-28T14:14:02;16.70;67.10
22680;DHT22;11507;44.858;10.374;2023-02-28T14:19:10;15.80;69.30
22680;DHT22;11507;44.858;10.374;2023-02-28T14:21:39;15.50;72.90
22680;DHT22;11507;44.858;10.374;2023-02-28T14:37:52;14.50;75.80
22680;DHT22;11507;44.858;10.374;2023-02-28T14:40:29;14.00;76.20
22680;DHT22;11507;44.858;10.374;2023-02-28T14:43:00;13.70;78.40
22680;DHT22;11507;44.858;10.374;2023-02-28T14:45:31;13.20;80.30
22680;DHT22;11507;44.858;10.374;2023-02-28T14:47:59;12.60;84.40
22680;DHT22;11507;44.858;10.374;2023-02-28T14:50:36;12.10;84.20
22680;DHT22;11507;44.858;10.374;2023-02-28T14:53:04;11.80;86.70
22680;DHT22;11507;44.858;10.374;2023-02-28T14:55:34;11.50;87.80
22680;DHT22;11507;44.858;10.374;2023-02-28T14:58:05;11.10;91.70
22680;DHT22;11507;44.858;10.374;2023-02-28T15:00:35;10.70;92.10
22680;DHT22;11507;44.858;10.374;2023-02-28T15:03:32;10.40;93.00
22680;DHT22;11507;44.858;10.374;2023-02-28T15:06:01;10.10;95.40
22680;DHT22;11507;44.858;10.374;2023-02-28T15:08:30;9.70;97.80
22680;DHT22;11507;44.858;10.374;2023-02-28T15:11:17;9.50;99.90
22680;DHT22;11507;44.858;10.374;2023-02-28T15:13:50;9.50;99.90
22680;DHT22;11507;44.858;10.374;2023-02-28T15:16:29;9.50;99.90
22680;DHT22;11507;44.858;10.374;2023-02-28T15:21:47;9.50;99.90
22680;DHT22;11507;44.858;10.374;2023-02-28T15:24:23;9.60;99.90
22680;DHT22;11507;44.858;10.374;2023-02-28T15:26:57;9.60;99.90
22680;DHT22;11507;44.858;10.374;2023-02-28T15:29:27;9.50;99.90
22680;DHT22;11507;44.858;10.374;2023-02-28T15:32:01;9.50;99.90
22680;DHT22;11507;44.858;10.374;2023-02-28T15:34:37;9.40;99.90
22680;DHT22;11507;44.858;10.374;2023-02-28T15:39:52;9.20;99.90
22680;DHT22;11507;44.858;10.374;2023-02-28T15:42:21;8.90;99.90
22680;DHT22;11507;44.858;10.374;2023-02-28T15:44:49;8.70;99.90
22680;DHT22;11507;44.858;10.374;2023-02-28T15:47:27;8.60;99.90
22680;DHT22;11507;44.858;10.374;2023-02-28T15:49:59;8.40;99.90
22680;DHT22;11507;44.858;10.374;2023-02-28T15:52:33;8.30;99.90
22680;DHT22;11507;44.858;10.374;2023-02-28T15:55:09;8.30;99.90
22680;DHT22;11507;44.858;10.374;2023-02-28T15:57:39;8.20;99.90
22680;DHT22;11507;44.858;10.374;2023-02-28T16:00:13;8.20;99.90
22680;DHT22;11507;44.858;10.374;2023-02-28T16:02:41;8.10;99.90
22680;DHT22;11507;44.858;10.374;2023-02-28T16:07:35;7.90;99.90
22680;DHT22;11507;44.858;10.374;2023-02-28T16:10:01;7.80;99.90
22680;DHT22;11507;44.858;10.374;2023-02-28T16:12:29;7.70;99.90
22680;DHT22;11507;44.858;10.374;2023-02-28T16:14:58;7.60;99.90
22680;DHT22;11507;44.858;10.374;2023-02-28T16:17:27;7.60;99.90
22680;DHT22;11507;44.858;10.374;2023-02-28T16:19:55;7.40;99.90
22680;DHT22;11507;44.858;10.374;2023-02-28T16:22:22;7.20;99.90
22680;DHT22;11507;44.858;10.374;2023-02-28T16:24:48;7.10;99.90
22680;DHT22;11507;44.858;10.374;2023-02-28T16:27:24;7.10;99.90
22680;DHT22;11507;44.858;10.374;2023-02-28T16:29:54;7.00;99.90
22680;DHT22;11507;44.858;10.374;2023-02-28T16:32:20;7.00;99.90
22680;DHT22;11507;44.858;10.374;2023-02-28T16:34:45;7.00;99.90
22680;DHT22;11507;44.858;10.374;2023-02-28T16:37:14;6.80;99.90
22680;DHT22;11507;44.858;10.374;2023-02-28T16:39:42;6.80;99.90
22680;DHT22;11507;44.858;10.374;2023-02-28T16:42:23;6.70;99.90
22680;DHT22;11507;44.858;10.374;2023-02-28T16:44:53;6.70;99.90
22680;DHT22;11507;44.858;10.374;2023-02-28T16:47:19;6.60;99.90
22680;DHT22;11507;44.858;10.374;2023-02-28T16:49:46;6.50;99.90
22680;DHT22;11507;44.858;10.374;2023-02-28T16:52:13;6.40;99.90
22680;DHT22;11507;44.858;10.374;2023-02-28T16:54:40;6.20;99.90
22680;DHT22;11507;44.858;10.374;2023-02-28T16:57:16;6.20;99.90
22680;DHT22;11507;44.858;10.374;2023-02-28T16:59:44;6.00;99.90
22680;DHT22;11507;44.858;10.374;2023-02-28T17:02:16;6.00;99.90
22680;DHT22;11507;44.858;10.374;2023-02-28T17:04:46;5.90;99.90
22680;DHT22;11507;44.858;10.374;2023-02-28T17:07:15;5.90;99.90
22680;DHT22;11507;44.858;10.374;2023-02-28T17:09:42;5.90;99.90
22680;DHT22;11507;44.858;10.374;2023-02-28T17:12:09;5.90;99.90
22680;DHT22;11507;44.858;10.374;2023-02-28T17:14:37;5.90;99.90
22680;DHT22;11507;44.858;10.374;2023-02-28T17:17:05;5.80;99.90
22680;DHT22;11507;44.858;10.374;2023-02-28T17:19:31;5.70;99.90
22680;DHT22;11507;44.858;10.374;2023-02-28T17:21:56;5.70;99.90
22680;DHT22;11507;44.858;10.374;2023-02-28T17:24:22;5.70;99.90
22680;DHT22;11507;44.858;10.374;2023-02-28T17:26:48;5.60;99.90
22680;DHT22;11507;44.858;10.374;2023-02-28T17:29:20;5.60;99.90
22680;DHT22;11507;44.858;10.374;2023-02-28T17:31:55;5.50;99.90
22680;DHT22;11507;44.858;10.374;2023-02-28T17:34:21;5.30;99.90
22680;DHT22;11507;44.858;10.374;2023-02-28T17:36:49;5.20;99.90
22680;DHT22;11507;44.858;10.374;2023-02-28T17:39:17;5.10;99.90
22680;DHT22;11507;44.858;10.374;2023-02-28T17:41:53;5.00;99.90
22680;DHT22;11507;44.858;10.374;2023-02-28T17:44:21;5.10;99.90
22680;DHT22;11507;44.858;10.374;2023-02-28T17:46:48;5.20;99.90
22680;DHT22;11507;44.858;10.374;2023-02-28T17:49:17;5.30;99.90
22680;DHT22;11507;44.858;10.374;2023-02-28T17:51:43;5.40;99.90
22680;DHT22;11507;44.858;10.374;2023-02-28T17:54:09;5.50;99.90
22680;DHT22;11507;44.858;10.374;2023-02-28T17:56:35;5.60;99.90
22680;DHT22;11507;44.858;10.374;2023-02-28T17:59:03;5.60;99.90
22680;DHT22;11507;44.858;10.374;2023-02-28T18:01:29;5.70;99.90
22680;DHT22;11507;44.858;10.374;2023-02-28T18:03:57;5.70;99.90
22680;DHT22;11507;44.858;10.374;2023-02-28T18:06:26;5.70;99.90
22680;DHT22;11507;44.858;10.374;2023-02-28T18:08:54;5.70;99.90
22680;DHT22;11507;44.858;10.374;2023-02-28T18:11:21;5.70;99.90
22680;DHT22;11507;44.858;10.374;2023-02-28T18:13:51;5.70;99.90
22680;DHT22;11507;44.858;10.374;2023-02-28T18:16:20;5.60;99.90
22680;DHT22;11507;44.858;10.374;2023-02-28T18:18:46;5.70;99.90